Time;durP1;ratioP1;P1;durP2;ratioP2;P2;SDS_P1;SDS_P2;PMS_P1;PMS_P2;Temp;Humidity;BMP_temperature;BMP_pressure;BME280_temperature;BME280_humidity;BME280_pressure;Samples;Min_cycle;Max_cycle;Signal;HPM_P1;HPM_P2
2023/02/16 00:00:20;;;;;;;61.90;29.50;;;;;;;1.07;80.33;101028.66;131572;1248;107459;-76
2023/02/16 00:03:46;;;;;;;62.00;28.40;;;;;;;1.05;79.94;101028.23;131544;1248;107553;-75
2023/02/16 00:06:53;;;;;;;64.80;30.20;;;;;;;0.98;80.00;101030.81;131509;1255;108364;-74
2023/02/16 00:09:58;;;;;;;65.80;31.10;;;;;;;0.96;80.28;101034.05;131547;1260;107549;-75
2023/02/16 00:16:45;;;;;;;58.20;29.00;;;;;;;0.93;80.02;101027.73;131608;1251;107904;-75
2023/02/16 00:19:50;;;;;;;66.70;32.10;;;;;;;0.87;80.22;101024.69;131543;1248;107502;-75
2023/02/16 00:22:56;;;;;;;64.30;31.00;;;;;;;0.82;80.19;101024.74;131446;1248;107530;-75
2023/02/16 00:26:02;;;;;;;63.50;29.80;;;;;;;0.76;80.48;101023.05;131510;1250;107612;-75
2023/02/16 00:29:11;;;;;;;63.90;29.60;;;;;;;0.73;80.03;101017.63;131530;1248;106251;-74
2023/02/16 00:32:17;;;;;;;66.30;29.40;;;;;;;0.70;79.92;101012.31;131538;1251;107334;-74
2023/02/16 00:35:23;;;;;;;61.40;27.20;;;;;;;0.67;79.87;101008.77;131577;1251;107596;-73
2023/02/16 00:38:29;;;;;;;64.70;30.00;;;;;;;0.64;79.79;101010.19;131487;1251;107386;-74
2023/02/16 00:41:53;;;;;;;59.10;29.00;;;;;;;0.64;79.90;101007.35;131507;1251;107485;-75
2023/02/16 00:45:00;;;;;;;59.70;29.90;;;;;;;0.65;79.79;101000.48;131465;1248;108539;-75
2023/02/16 00:48:05;;;;;;;63.50;29.40;;;;;;;0.63;79.61;100994.96;131492;1248;107410;-75
2023/02/16 00:51:12;;;;;;;59.90;27.00;;;;;;;0.57;79.57;100990.85;131523;1251;106727;-75
2023/02/16 00:54:17;;;;;;;58.30;27.10;;;;;;;0.54;79.47;100977.16;131499;1251;107508;-74
2023/02/16 00:57:24;;;;;;;56.00;27.70;;;;;;;0.50;79.29;100970.89;131525;1251;107499;-74
2023/02/16 01:00:34;;;;;;;54.40;26.60;;;;;;;0.42;79.18;100967.40;131578;1248;107545;-74
2023/02/16 01:03:40;;;;;;;55.50;25.40;;;;;;;0.33;79.09;100959.76;131576;1250;106650;-72
2023/02/16 01:13:39;;;;;;;63.80;30.00;;;;;;;0.11;79.52;100958.48;131365;1254;109283;-73
2023/02/16 01:16:44;;;;;;;72.70;31.70;;;;;;;0.07;79.47;100956.23;131403;1247;107556;-73
2023/02/16 01:19:50;;;;;;;67.50;30.10;;;;;;;0.05;79.55;100955.64;131208;1254;107489;-75
2023/02/16 01:22:56;;;;;;;67.30;29.70;;;;;;;0.03;79.60;100955.35;131274;1253;107520;-75
2023/02/16 01:26:02;;;;;;;65.70;28.10;;;;;;;0.07;79.72;100955.02;131111;1254;107396;-74
2023/02/16 01:29:13;;;;;;;66.10;28.20;;;;;;;0.10;79.52;100956.25;131243;1248;107450;-74
2023/02/16 01:32:18;;;;;;;69.60;30.40;;;;;;;0.13;79.67;100958.23;131128;1248;107437;-74
2023/02/16 01:35:29;;;;;;;66.10;30.10;;;;;;;0.16;79.88;100952.14;131292;1255;107504;-74
2023/02/16 01:38:34;;;;;;;67.80;32.10;;;;;;;0.16;79.52;100947.40;131406;1254;106153;-74
2023/02/16 01:45:18;;;;;;;63.80;30.00;;;;;;;0.11;79.47;100935.41;127035;1293;635950;-75
2023/02/16 01:48:28;;;;;;;62.80;29.20;;;;;;;0.09;79.67;100927.09;130086;1284;107339;-74
2023/02/16 01:51:41;;;;;;;60.90;29.60;;;;;;;0.09;79.60;100930.77;130091;1266;107374;-74
2023/02/16 01:54:53;;;;;;;67.90;30.50;;;;;;;0.08;79.42;100930.13;130044;1267;107466;-73
2023/02/16 01:57:59;;;;;;;;;;;;;;;0.04;79.30;100929.62;130090;1281;161246;-76
2023/02/16 02:01:35;;;;;;;56.10;25.80;;;;;;;-0.02;79.36;100930.73;130424;1264;107362;-74
2023/02/16 02:08:30;;;;;;;57.80;27.60;;;;;;;-0.27;78.73;100933.55;130941;1257;107604;-75
2023/02/16 02:11:41;;;;;;;59.20;27.80;;;;;;;-0.42;79.04;100927.95;131013;1266;107511;-74
2023/02/16 02:14:48;;;;;;;67.20;28.20;;;;;;;-0.42;79.42;100925.27;131117;1256;107467;-74
2023/02/16 02:17:54;;;;;;;65.90;28.00;;;;;;;-0.42;79.25;100920.23;130825;1257;107475;-74
2023/02/16 02:25:03;;;;;;;59.40;25.70;;;;;;;-0.30;79.66;100911.53;130806;1257;107551;-74
2023/02/16 02:28:14;;;;;;;63.60;27.70;;;;;;;-0.20;79.66;100904.25;130778;1275;107555;-75
2023/02/16 02:31:31;;;;;;;65.20;29.30;;;;;;;-0.10;79.89;100899.81;130954;1257;106489;-75
2023/02/16 02:34:48;;;;;;;66.70;29.70;;;;;;;-0.03;80.31;100897.52;131011;1256;107631;-75
2023/02/16 02:38:00;;;;;;;67.60;29.80;;;;;;;0.04;80.03;100883.92;130828;1258;107353;-74
2023/02/16 02:41:15;;;;;;;66.60;30.70;;;;;;;0.07;80.26;100880.50;130831;1257;107549;-74
2023/02/16 02:44:25;;;;;;;66.50;31.30;;;;;;;0.10;80.31;100876.86;130839;1268;107441;-74
2023/02/16 02:47:41;;;;;;;70.50;32.00;;;;;;;0.10;80.42;100874.23;130837;1256;108653;-74
2023/02/16 03:01:13;;;;;;;71.80;32.70;;;;;;;0.10;80.98;100861.09;130914;1257;107611;-75
2023/02/16 03:04:24;;;;;;;70.30;31.40;;;;;;;0.15;81.01;100858.59;130937;1260;107696;-73
2023/02/16 03:14:39;;;;;;;65.20;30.80;;;;;;;0.35;81.16;100850.66;129991;1267;107516;-75
2023/02/16 03:31:28;;;;;;;65.00;32.30;;;;;;;0.41;80.99;100836.88;130181;1264;107741;-75
2023/02/16 03:34:36;;;;;;;65.10;31.80;;;;;;;0.39;81.06;100832.77;130268;1272;107347;-74
2023/02/16 03:37:42;;;;;;;64.10;31.60;;;;;;;0.36;81.11;100821.73;130327;1283;107503;-75
2023/02/16 03:40:49;;;;;;;73.30;32.90;;;;;;;0.32;81.06;100823.33;130373;1283;108594;-75
2023/02/16 03:43:55;;;;;;;74.70;33.00;;;;;;;0.29;81.15;100822.59;130022;1260;107236;-73
2023/02/16 03:47:01;;;;;;;69.70;32.00;;;;;;;0.30;81.28;100817.13;130485;1268;107519;-75
2023/02/16 03:50:08;;;;;;;59.30;27.40;;;;;;;0.32;81.24;100815.09;130221;1272;107211;-75
2023/02/16 03:53:14;;;;;;;65.50;29.90;;;;;;;0.37;81.37;100819.20;130566;1264;107495;-76
2023/02/16 03:56:19;;;;;;;63.50;30.70;;;;;;;0.42;81.38;100821.26;130534;1262;107517;-76
2023/02/16 03:59:25;;;;;;;61.80;30.10;;;;;;;0.45;81.24;100822.16;130501;1262;106687;-76
2023/02/16 04:02:31;;;;;;;61.70;30.30;;;;;;;0.46;81.10;100818.97;130500;1261;107649;-76
2023/02/16 04:05:37;;;;;;;68.40;32.10;;;;;;;0.46;81.13;100825.11;130659;1260;106555;-78
2023/02/16 04:08:43;;;;;;;62.70;31.10;;;;;;;0.45;81.28;100824.12;130586;1261;107366;-76
2023/02/16 04:15:16;;;;;;;65.90;30.70;;;;;;;0.38;81.18;100821.23;130445;1261;106263;-74
2023/02/16 04:18:21;;;;;;;64.80;30.70;;;;;;;0.35;81.18;100817.05;130539;1260;105722;-73
2023/02/16 04:21:27;;;;;;;63.70;30.90;;;;;;;0.31;81.29;100814.10;130499;1260;106029;-73
2023/02/16 04:24:32;;;;;;;75.70;34.60;;;;;;;0.27;81.25;100809.56;130463;1261;107539;-73
2023/02/16 04:27:42;;;;;;;63.10;31.00;;;;;;;0.24;81.29;100799.91;130471;1262;107495;-72
2023/02/16 04:30:47;;;;;;;68.00;31.10;;;;;;;0.21;81.22;100799.54;130474;1258;107572;-73
2023/02/16 04:33:53;;;;;;;59.00;28.10;;;;;;;0.18;81.17;100799.50;130459;1263;107518;-73
2023/02/16 04:36:58;;;;;;;64.90;30.10;;;;;;;0.21;81.50;100804.95;130524;1268;109270;-73
2023/02/16 04:40:05;;;;;;;62.60;31.30;;;;;;;0.28;81.50;100806.20;130499;1267;107528;-72
2023/02/16 04:43:10;;;;;;;62.30;30.90;;;;;;;0.30;81.31;100805.39;130505;1271;107253;-73
2023/02/16 04:46:17;;;;;;;64.10;32.00;;;;;;;0.31;81.28;100807.27;130531;1260;107508;-74
2023/02/16 04:49:23;;;;;;;63.80;30.90;;;;;;;0.30;81.27;100808.70;130594;1258;107369;-72
2023/02/16 04:52:29;;;;;;;64.60;30.50;;;;;;;0.25;80.96;100804.60;130658;1260;107834;-72
2023/02/16 04:55:34;;;;;;;66.50;30.80;;;;;;;0.18;80.77;100799.85;130528;1259;105777;-73
2023/02/16 04:58:40;;;;;;;61.40;30.60;;;;;;;0.13;80.79;100799.38;130585;1262;107379;-72
2023/02/16 05:01:46;;;;;;;67.00;31.60;;;;;;;0.10;81.13;100803.71;130628;1256;108698;-73
2023/02/16 05:04:51;;;;;;;62.60;31.10;;;;;;;0.07;81.08;100796.34;130493;1260;105723;-73
2023/02/16 05:07:57;;;;;;;65.90;31.30;;;;;;;0.05;81.20;100793.82;130459;1261;108240;-74
2023/02/16 05:14:44;;;;;;;69.30;31.10;;;;;;;-0.03;81.26;100791.20;130519;1272;107327;-74
2023/02/16 05:17:51;;;;;;;66.60;30.10;;;;;;;-0.04;81.13;100786.52;130498;1270;108679;-72
2023/02/16 05:24:19;;;;;;;63.80;28.90;;;;;;;0.06;81.43;100791.84;130483;1262;106677;-76
2023/02/16 05:27:27;;;;;;;61.00;29.30;;;;;;;0.12;81.31;100792.92;130604;1261;107566;-72
2023/02/16 05:30:33;;;;;;;59.80;29.20;;;;;;;0.16;81.32;100790.11;130612;1279;107593;-73
2023/02/16 05:33:38;;;;;;;59.20;29.00;;;;;;;0.19;81.29;100791.40;130573;1269;107539;-73
2023/02/16 05:36:44;;;;;;;59.40;30.80;;;;;;;0.17;81.41;100794.47;130505;1262;107629;-72
2023/02/16 05:39:51;;;;;;;59.60;29.70;;;;;;;0.15;81.27;100801.73;130518;1262;107711;-73
2023/02/16 05:42:57;;;;;;;62.20;29.70;;;;;;;0.11;81.33;100805.05;130480;1263;106702;-72
2023/02/16 05:46:08;;;;;;;59.00;29.40;;;;;;;0.08;81.34;100809.79;130470;1261;108670;-74
2023/02/16 05:49:15;;;;;;;60.90;30.30;;;;;;;0.05;81.32;100812.88;130491;1260;107221;-73
2023/02/16 05:52:20;;;;;;;64.10;31.50;;;;;;;-0.00;81.43;100806.64;130675;1260;107564;-73
2023/02/16 05:55:26;;;;;;;61.50;30.40;;;;;;;-0.05;81.45;100808.98;130479;1269;106996;-75
2023/02/16 05:58:32;;;;;;;66.10;30.30;;;;;;;-0.11;81.41;100805.55;131063;1255;107632;-78
2023/02/16 06:01:39;;;;;;;66.20;30.50;;;;;;;-0.17;81.36;100803.56;131326;1254;107585;-75
2023/02/16 06:04:45;;;;;;;58.90;28.20;;;;;;;-0.17;81.42;100802.21;131357;1255;107491;-74
2023/02/16 06:07:50;;;;;;;58.30;27.20;;;;;;;-0.16;81.39;100799.52;131434;1253;106628;-75
2023/02/16 06:10:56;;;;;;;58.00;27.40;;;;;;;-0.09;81.48;100795.17;131240;1254;106793;-76
2023/02/16 06:14:02;;;;;;;57.50;28.30;;;;;;;-0.04;81.25;100798.75;131295;1254;106548;-75
2023/02/16 06:17:08;;;;;;;59.90;28.60;;;;;;;0.00;81.29;100800.49;131228;1271;107437;-76
2023/02/16 06:20:14;;;;;;;61.40;28.70;;;;;;;0.06;81.30;100804.81;131197;1253;106734;-76
2023/02/16 06:23:19;;;;;;;59.40;29.70;;;;;;;0.08;81.36;100804.17;131054;1254;107550;-77
2023/02/16 06:26:25;;;;;;;61.80;30.60;;;;;;;0.09;81.44;100802.55;131038;1251;106561;-76
2023/02/16 06:29:31;;;;;;;62.90;30.60;;;;;;;0.10;81.28;100798.84;131070;1265;107447;-77
2023/02/16 06:32:37;;;;;;;60.30;29.50;;;;;;;0.10;81.51;100794.83;131175;1254;109288;-77
2023/02/16 06:35:42;;;;;;;63.30;31.20;;;;;;;0.11;81.49;100793.00;131037;1257;106434;-77
2023/02/16 06:38:48;;;;;;;60.90;31.40;;;;;;;0.09;81.36;100791.34;131408;1251;107391;-76
2023/02/16 06:41:53;;;;;;;71.20;32.40;;;;;;;0.09;81.46;100793.81;131032;1251;107395;-77
2023/02/16 06:44:59;;;;;;;67.70;30.90;;;;;;;0.11;81.53;100791.92;131032;1253;106022;-77
2023/02/16 06:48:05;;;;;;;62.20;30.00;;;;;;;0.16;81.66;100791.88;131171;1256;107550;-77
2023/02/16 06:51:10;;;;;;;56.30;26.90;;;;;;;0.28;81.68;100786.44;131076;1251;108964;-79
2023/02/16 06:54:16;;;;;;;60.10;29.50;;;;;;;0.39;81.73;100784.48;131107;1254;107503;-78
2023/02/16 06:57:22;;;;;;;62.90;30.50;;;;;;;0.50;81.70;100779.02;131250;1252;108624;-76
2023/02/16 07:00:28;;;;;;;59.70;28.80;;;;;;;0.60;81.60;100777.15;131159;1251;107536;-77
2023/02/16 07:03:34;;;;;;;59.10;30.10;;;;;;;0.69;81.70;100774.42;131075;1251;107462;-77
2023/02/16 07:06:40;;;;;;;57.60;29.40;;;;;;;0.76;81.82;100780.89;131115;1264;107388;-76
2023/02/16 07:09:45;;;;;;;58.90;29.40;;;;;;;0.86;81.76;100779.55;131345;1256;107339;-77
2023/02/16 07:12:51;;;;;;;60.70;29.90;;;;;;;0.96;81.90;100775.87;131051;1252;107446;-76
2023/02/16 07:15:56;;;;;;;62.70;30.50;;;;;;;1.04;81.89;100777.93;131052;1253;107520;-77
2023/02/16 07:19:02;;;;;;;62.30;30.60;;;;;;;1.11;81.84;100780.86;131130;1253;107580;-77
2023/02/16 07:22:08;;;;;;;59.00;30.30;;;;;;;1.19;81.93;100786.05;131092;1271;107268;-77
2023/02/16 07:25:13;;;;;;;67.10;32.60;;;;;;;1.27;81.96;100784.40;131286;1255;107262;-77
2023/02/16 07:28:19;;;;;;;67.20;32.10;;;;;;;1.37;82.15;100780.71;131212;1254;107568;-78
2023/02/16 07:31:25;;;;;;;53.50;27.10;;;;;;;1.51;82.05;100778.74;131087;1254;108454;-78
2023/02/16 07:34:31;;;;;;;59.20;30.90;;;;;;;1.68;82.40;100782.27;131104;1263;107517;-77
2023/02/16 07:37:37;;;;;;;63.70;31.90;;;;;;;1.86;82.16;100776.19;131125;1250;107452;-77
2023/02/16 07:40:42;;;;;;;67.40;33.70;;;;;;;2.02;82.13;100769.65;131229;1254;107556;-78
2023/02/16 07:43:48;;;;;;;60.80;31.90;;;;;;;2.15;82.07;100764.19;131132;1254;107544;-77
2023/02/16 07:46:54;;;;;;;65.30;32.80;;;;;;;2.28;82.14;100763.29;131108;1258;107796;-77
2023/02/16 07:50:02;;;;;;;64.80;33.40;;;;;;;2.39;82.10;100767.42;131167;1252;107503;-77
2023/02/16 07:53:11;;;;;;;64.70;33.30;;;;;;;2.52;81.96;100771.27;131243;1248;107676;-77
2023/02/16 07:56:33;;;;;;;64.60;34.10;;;;;;;2.63;81.99;100771.31;131329;1251;107533;-77
2023/02/16 07:59:41;;;;;;;63.10;31.90;;;;;;;2.76;81.96;100774.05;131120;1248;108161;-77
2023/02/16 08:02:49;;;;;;;71.00;33.50;;;;;;;2.86;81.89;100771.55;131141;1254;107509;-78
2023/02/16 08:05:56;;;;;;;62.70;31.70;;;;;;;2.99;81.95;100770.77;131211;1255;107194;-78
2023/02/16 08:09:03;;;;;;;56.30;28.20;;;;;;;3.15;81.85;100761.38;131223;1251;107411;-76
2023/02/16 08:12:11;;;;;;;60.80;30.60;;;;;;;3.31;81.91;100761.65;131188;1251;107435;-76
2023/02/16 08:15:18;;;;;;;60.80;32.30;;;;;;;3.47;81.69;100765.08;131221;1268;107594;-77
2023/02/16 08:18:23;;;;;;;63.60;32.80;;;;;;;3.61;81.62;100769.66;131193;1251;107531;-77
2023/02/16 08:21:31;;;;;;;65.70;33.20;;;;;;;3.73;81.54;100765.18;131130;1251;108583;-77
2023/02/16 08:24:37;;;;;;;63.10;32.20;;;;;;;3.86;81.37;100760.33;131050;1251;107387;-79
2023/02/16 08:27:42;;;;;;;57.20;31.20;;;;;;;3.97;81.15;100761.06;131114;1251;107621;-78
2023/02/16 08:30:48;;;;;;;75.90;41.20;;;;;;;4.03;80.95;100762.58;131079;1264;107517;-77
2023/02/16 08:33:56;;;;;;;55.80;30.90;;;;;;;4.10;80.74;100760.04;131035;1252;107560;-77
2023/02/16 08:37:03;;;;;;;57.30;30.60;;;;;;;4.12;80.67;100757.58;131211;1252;107586;-78
2023/02/16 08:40:11;;;;;;;57.30;31.40;;;;;;;4.15;80.73;100760.75;131412;1260;108517;-75
2023/02/16 08:43:16;;;;;;;60.00;30.40;;;;;;;4.18;80.35;100757.05;131309;1253;107596;-76
2023/02/16 08:46:22;;;;;;;81.10;34.40;;;;;;;4.19;80.30;100753.50;131129;1269;109256;-77
2023/02/16 08:49:28;;;;;;;56.00;30.00;;;;;;;4.21;80.46;100752.77;131345;1263;107672;-75
2023/02/16 08:52:34;;;;;;;51.30;27.30;;;;;;;4.24;80.30;100746.59;131394;1262;108735;-78
2023/02/16 08:55:39;;;;;;;52.40;26.60;;;;;;;4.28;79.63;100750.94;131203;1251;108468;-77
2023/02/16 08:58:45;;;;;;;55.60;28.30;;;;;;;4.34;80.13;100754.38;131193;1255;106768;-77
2023/02/16 09:01:51;;;;;;;50.40;27.70;;;;;;;4.46;79.78;100754.54;131199;1252;108017;-77
2023/02/16 09:04:56;;;;;;;49.60;27.50;;;;;;;4.59;79.77;100754.88;131163;1254;107529;-77
2023/02/16 09:08:02;;;;;;;50.30;26.90;;;;;;;4.70;79.69;100746.96;131142;1271;107259;-78
2023/02/16 09:11:11;;;;;;;50.70;27.60;;;;;;;4.76;79.04;100749.36;131380;1248;109909;-78
2023/02/16 09:14:18;;;;;;;54.90;28.90;;;;;;;4.77;78.54;100754.89;131184;1248;107404;-77
2023/02/16 09:17:25;;;;;;;49.50;26.80;;;;;;;4.76;79.11;100754.84;131121;1254;107483;-78
2023/02/16 09:20:31;;;;;;;51.00;27.90;;;;;;;4.81;79.08;100755.89;131084;1250;107406;-78
2023/02/16 09:23:37;;;;;;;50.00;27.10;;;;;;;4.83;78.81;100753.08;131070;1253;108345;-78
2023/02/16 09:26:43;;;;;;;49.00;27.00;;;;;;;4.90;79.06;100751.23;131035;1252;108571;-77
2023/02/16 09:29:50;;;;;;;45.20;26.70;;;;;;;4.97;79.02;100745.80;131142;1264;107230;-78
2023/02/16 09:32:55;;;;;;;46.80;26.40;;;;;;;5.02;78.68;100743.21;131379;1250;105979;-77
2023/02/16 09:36:03;;;;;;;46.60;26.50;;;;;;;5.05;78.78;100744.90;131241;1254;109382;-78
2023/02/16 09:39:09;;;;;;;45.30;25.90;;;;;;;5.08;78.78;100741.32;131168;1254;107335;-77
2023/02/16 09:42:30;;;;;;;50.70;27.50;;;;;;;5.09;78.02;100739.13;131430;1252;109022;-76
2023/02/16 09:45:42;;;;;;;47.10;25.60;;;;;;;5.08;78.15;100742.23;131399;1252;106362;-76
2023/02/16 09:48:48;;;;;;;;;;;;;;;5.10;78.02;100734.84;131399;1251;107402;-76
2023/02/16 09:52:01;;;;;;;49.60;27.80;;;;;;;5.13;77.83;100738.77;131432;1253;107258;-76
2023/02/16 09:55:11;;;;;;;49.80;27.80;;;;;;;5.05;76.42;100738.36;131367;1251;108680;-76
2023/02/16 09:58:20;;;;;;;51.50;27.70;;;;;;;5.05;77.41;100738.89;131222;1248;107385;-77
2023/02/16 10:01:32;;;;;;;49.80;24.80;;;;;;;5.11;77.63;100735.30;131204;1252;106609;-78
2023/02/16 10:04:50;;;;;;;45.50;25.00;;;;;;;5.21;77.74;100732.91;131195;1252;108636;-77
2023/02/16 10:08:06;;;;;;;46.40;25.10;;;;;;;5.36;77.90;100730.73;131122;1254;107440;-78
2023/02/16 10:14:44;;;;;;;51.80;26.80;;;;;;;5.75;77.43;100715.48;131360;1253;107609;-78
2023/02/16 10:17:54;;;;;;;47.00;25.70;;;;;;;5.87;77.47;100713.34;131218;1252;107330;-79
2023/02/16 10:21:02;;;;;;;48.60;26.70;;;;;;;6.00;77.57;100708.19;131313;1248;107543;-78
2023/02/16 10:24:12;;;;;;;44.50;25.60;;;;;;;6.12;77.63;100704.02;131249;1248;107374;-78
2023/02/16 10:27:26;;;;;;;44.90;25.80;;;;;;;6.21;77.27;100698.73;131211;1271;107246;-77
2023/02/16 10:30:33;;;;;;;45.70;26.70;;;;;;;6.32;77.10;100695.46;131151;1271;107296;-78
2023/02/16 10:33:43;;;;;;;44.00;26.90;;;;;;;6.41;77.04;100692.31;131376;1250;107960;-76
2023/02/16 10:37:03;;;;;;;46.20;26.30;;;;;;;6.50;77.17;100686.14;131441;1253;107518;-76
2023/02/16 10:40:23;;;;;;;44.10;26.20;;;;;;;6.59;77.15;100689.36;131101;1265;107531;-76
2023/02/16 10:43:42;;;;;;;43.80;26.30;;;;;;;6.67;77.21;100687.33;131379;1254;105801;-77
2023/02/16 10:46:55;;;;;;;45.40;27.10;;;;;;;6.70;76.84;100687.97;131386;1250;107307;-76
2023/02/16 10:50:01;;;;;;;44.60;25.80;;;;;;;6.74;76.81;100685.06;131332;1250;106442;-77
2023/02/16 10:53:18;;;;;;;44.00;26.30;;;;;;;6.78;76.74;100682.39;131364;1252;107546;-79
2023/02/16 10:56:41;;;;;;;44.70;26.70;;;;;;;6.85;77.18;100679.39;131482;1250;106233;-78
2023/02/16 10:59:47;;;;;;;43.50;25.70;;;;;;;6.92;76.23;100676.73;131405;1254;107568;-78
2023/02/16 11:02:53;;;;;;;44.10;26.10;;;;;;;6.95;76.22;100678.42;131110;1252;107541;-78
2023/02/16 11:06:15;;;;;;;44.90;26.90;;;;;;;6.96;75.86;100677.87;131328;1252;107446;-78
2023/02/16 11:09:29;;;;;;;41.30;25.00;;;;;;;6.98;75.90;100678.40;131091;1262;108395;-78
2023/02/16 11:12:39;;;;;;;41.30;25.00;;;;;;;7.02;75.98;100672.06;131139;1253;107556;-78
2023/02/16 11:15:50;;;;;;;41.20;24.40;;;;;;;7.08;76.16;100671.95;131076;1250;108631;-78
2023/02/16 11:19:01;;;;;;;43.00;25.30;;;;;;;7.17;76.24;100672.84;131019;1250;107538;-78
2023/02/16 11:22:24;;;;;;;41.90;24.90;;;;;;;7.25;76.19;100671.70;131218;1252;107488;-78
2023/02/16 11:25:30;;;;;;;42.60;24.60;;;;;;;7.34;75.99;100666.39;131254;1254;107375;-78
2023/02/16 11:28:38;;;;;;;39.90;23.90;;;;;;;7.40;75.75;100662.71;131049;1250;107502;-78
2023/02/16 11:31:44;;;;;;;38.40;24.70;;;;;;;7.48;75.62;100662.05;131322;1250;107514;-78
2023/02/16 11:34:52;;;;;;;40.90;24.50;;;;;;;7.56;75.47;100663.56;131257;1250;107571;-78
2023/02/16 11:37:58;;;;;;;37.00;23.50;;;;;;;7.60;75.27;100656.14;131204;1248;107434;-80
2023/02/16 11:41:06;;;;;;;45.80;25.10;;;;;;;7.67;74.75;100662.64;131386;1250;107604;-78
2023/02/16 11:44:26;;;;;;;42.90;24.90;;;;;;;7.72;74.90;100659.61;131145;1266;108594;-77
2023/02/16 11:47:34;;;;;;;38.60;24.10;;;;;;;7.76;74.92;100657.89;131290;1249;107728;-79
2023/02/16 11:50:54;;;;;;;40.90;24.80;;;;;;;7.81;74.80;100653.06;131125;1254;107285;-79
2023/02/16 11:54:04;;;;;;;41.00;24.30;;;;;;;7.85;74.28;100650.58;131109;1250;107952;-79
2023/02/16 11:57:14;;;;;;;38.90;24.50;;;;;;;7.84;74.33;100649.23;131357;1252;108644;-78
2023/02/16 12:00:22;;;;;;;38.40;23.50;;;;;;;7.84;74.41;100645.30;131109;1252;106964;-78
2023/02/16 12:03:41;;;;;;;38.80;23.70;;;;;;;7.86;74.25;100644.64;131287;1249;107595;-78
2023/02/16 12:06:59;;;;;;;37.30;24.30;;;;;;;7.89;74.13;100644.27;131238;1253;107708;-79
2023/02/16 12:10:09;;;;;;;38.10;23.80;;;;;;;7.93;74.02;100642.13;131372;1250;107361;-79
2023/02/16 12:13:22;;;;;;;37.00;22.70;;;;;;;7.95;73.92;100644.77;131392;1249;107381;-78
2023/02/16 12:16:40;;;;;;;41.00;24.70;;;;;;;7.98;74.09;100641.40;131325;1250;107488;-78
2023/02/16 12:19:48;;;;;;;51.00;30.80;;;;;;;7.99;73.78;100640.23;131121;1250;107432;-78
2023/02/16 12:23:04;;;;;;;52.90;27.50;;;;;;;7.96;73.47;100642.58;131365;1251;107552;-76
2023/02/16 12:26:37;;;;;;;44.60;25.20;;;;;;;7.95;72.44;100640.55;131202;1251;107583;-78
2023/02/16 12:29:54;;;;;;;41.30;23.90;;;;;;;7.90;72.46;100636.20;131050;1265;107302;-78
2023/02/16 12:33:16;;;;;;;40.00;24.90;;;;;;;7.88;72.73;100634.95;131159;1248;107449;-78
2023/02/16 12:36:55;;;;;;;39.00;23.40;;;;;;;7.84;72.86;100635.42;131131;1271;108685;-78
2023/02/16 12:40:13;;;;;;;40.00;23.90;;;;;;;7.87;73.13;100629.14;131058;1248;108564;-79
2023/02/16 12:43:32;;;;;;;41.50;24.30;;;;;;;7.85;72.82;100630.56;131257;1252;109382;-74
2023/02/16 12:46:42;;;;;;;41.60;25.60;;;;;;;7.82;71.95;100628.33;131164;1271;107209;-72
2023/02/16 12:49:55;;;;;;;47.20;26.40;;;;;;;7.76;72.15;100623.55;131147;1268;107203;-73
2023/02/16 12:53:08;;;;;;;48.70;25.80;;;;;;;7.73;72.36;100623.78;131365;1252;107650;-71
2023/02/16 12:56:21;;;;;;;40.70;24.90;;;;;;;7.73;72.85;100625.19;131431;1252;107468;-72
2023/02/16 12:59:36;;;;;;;59.40;32.20;;;;;;;7.74;72.43;100623.35;131135;1250;107410;-74
2023/02/16 13:02:48;;;;;;;63.20;36.30;;;;;;;7.75;72.78;100622.92;131128;1265;107272;-74
2023/02/16 13:06:03;;;;;;;46.70;26.00;;;;;;;7.76;72.88;100623.47;131374;1252;107479;-74
2023/02/16 13:09:18;;;;;;;43.20;26.00;;;;;;;7.75;72.27;100618.98;131299;1249;108621;-75
2023/02/16 13:12:30;;;;;;;38.40;23.60;;;;;;;7.75;71.79;100616.13;131073;1251;107533;-73
2023/02/16 13:15:36;;;;;;;;;;;;;;;7.74;71.54;100617.13;131182;1264;107591;-73
2023/02/16 13:18:45;;;;;;;45.70;26.00;;;;;;;7.72;71.75;100614.06;131374;1252;107527;-73
2023/02/16 13:22:19;;;;;;;45.00;27.60;;;;;;;7.74;71.95;100614.64;131402;1249;107480;-72
2023/02/16 13:25:51;;;;;;;43.40;23.90;;;;;;;7.77;71.81;100612.60;131426;1251;107336;-72
2023/02/16 13:29:30;;;;;;;115.90;56.50;;;;;;;7.78;71.35;100609.39;131341;1250;108578;-72
2023/02/16 13:32:52;;;;;;;54.90;32.00;;;;;;;7.84;72.34;100613.11;131062;1250;107484;-74
2023/02/16 13:36:11;;;;;;;45.40;25.70;;;;;;;7.92;72.21;100612.49;131150;1252;107535;-73
2023/02/16 13:39:51;;;;;;;41.90;24.50;;;;;;;7.98;72.07;100613.77;131238;1251;107616;-74
2023/02/16 13:43:25;;;;;;;45.00;27.70;;;;;;;8.01;71.78;100608.52;130825;1250;107551;-73
2023/02/16 13:46:34;;;;;;;125.00;62.80;;;;;;;8.03;71.86;100607.08;131070;1249;108618;-74
2023/02/16 13:49:42;;;;;;;63.50;33.60;;;;;;;8.04;71.20;100610.26;131126;1253;106594;-73
2023/02/16 13:52:49;;;;;;;88.70;44.20;;;;;;;8.03;71.32;100612.59;131155;1249;108708;-73
2023/02/16 13:56:20;;;;;;;142.90;57.00;;;;;;;8.01;71.54;100614.03;131175;1251;107381;-72
2023/02/16 13:59:56;;;;;;;72.40;35.80;;;;;;;7.99;71.37;100606.95;131082;1249;107438;-73
2023/02/16 14:03:06;;;;;;;99.10;47.10;;;;;;;7.95;71.48;100607.12;131096;1252;108703;-73
2023/02/16 14:06:31;;;;;;;174.00;67.50;;;;;;;7.90;71.76;100607.28;131297;1252;107489;-73
2023/02/16 14:09:50;;;;;;;95.80;42.80;;;;;;;7.88;71.81;100607.51;131134;1249;107533;-74
2023/02/16 14:12:55;;;;;;;106.00;43.20;;;;;;;7.82;71.50;100607.05;131066;1251;108659;-73
2023/02/16 14:16:08;;;;;;;188.90;103.80;;;;;;;7.76;71.75;100601.56;131022;1248;108614;-73
2023/02/16 14:19:19;;;;;;;;;;;;;;;7.69;72.00;100601.40;131329;1250;108643;-75
2023/02/16 14:22:32;;;;;;;57.40;32.50;;;;;;;7.64;71.92;100597.73;131406;1249;107387;-73
2023/02/16 14:25:42;;;;;;;80.80;40.20;;;;;;;7.58;72.15;100594.87;131255;1264;107619;-73
2023/02/16 14:29:02;;;;;;;112.80;56.90;;;;;;;7.52;72.09;100596.77;131310;1250;107346;-74
2023/02/16 14:32:23;;;;;;;62.70;38.00;;;;;;;7.46;72.00;100600.77;131244;1252;107512;-74
2023/02/16 14:35:32;;;;;;;54.50;30.70;;;;;;;7.38;71.95;100605.86;131072;1249;107299;-72
2023/02/16 14:38:43;;;;;;;54.70;33.80;;;;;;;7.33;72.15;100611.46;131149;1250;107549;-72
2023/02/16 14:41:48;;;;;;;53.30;32.80;;;;;;;7.26;72.24;100610.21;131051;1252;107517;-73
2023/02/16 14:45:09;;;;;;;245.70;91.00;;;;;;;7.20;71.95;100606.05;131050;1252;107498;-73
2023/02/16 14:48:28;;;;;;;87.50;56.10;;;;;;;7.20;72.21;100605.94;131080;1252;107532;-73
2023/02/16 14:52:02;;;;;;;81.00;57.20;;;;;;;7.22;72.04;100604.19;131291;1252;107405;-73
2023/02/16 14:55:47;;;;;;;55.10;30.90;;;;;;;7.23;72.02;100606.86;131019;1251;107522;-73
2023/02/16 14:59:00;;;;;;;46.30;27.60;;;;;;;7.21;71.89;100597.69;131132;1252;107538;-74
2023/02/16 15:02:25;;;;;;;62.70;35.20;;;;;;;7.17;71.70;100597.30;131595;1249;107544;-73
2023/02/16 15:05:34;;;;;;;293.00;99.50;;;;;;;7.12;71.83;100594.48;131317;1250;106525;-74
2023/02/16 15:08:45;;;;;;;163.60;66.40;;;;;;;7.07;71.96;100594.76;131274;1271;107404;-73
2023/02/16 15:15:22;;;;;;;86.20;42.30;;;;;;;6.89;72.08;100588.69;131306;1252;107532;-73
2023/02/16 15:18:32;;;;;;;338.30;163.60;;;;;;;6.81;72.37;100590.60;131191;1251;107439;-73
2023/02/16 15:21:38;;;;;;;90.30;46.90;;;;;;;6.71;72.08;100591.89;131085;1250;107495;-74
2023/02/16 15:24:44;;;;;;;62.50;37.30;;;;;;;6.61;72.19;100587.90;131168;1254;107342;-73